To NAV CANADA Home Page Login to a new session Search on AWWS site Feedback and Comments Disclaimer Vers la page française équivalente Tips FAQ What's new on the site To the Forecasts and Observations / NOTAM section To "File a Flight Plan" website Publications and other links Update of the User's profile FIC Telephone Numbers My Weather Data Folder Route Weather Data Regional Weather Data Local Weather Data To the Forecasts and Observations / NOTAM section
Request Generated 10/17/2017 at 01:42:59 UTC . Weather information available at that time is displayed.

METAR/TAF

COMOX/BC    

METAR CYQQ 170100Z 14022G29KT 20SM -RA FEW008 SCT025 OVC045 11/10 A2994 RMK SF1SC2SC5 SLP139=
METAR CYQQ 170000Z 13022G30KT 20SM -RA FEW008 SCT030 BKN045 OVC100 12/10 A2997 RMK SF1SC2SC3AC2 SLP150=
METAR CYQQ 162300Z 13020G28KT 20SM -RA FEW008 FEW030 BKN044 OVC100 12/11 A2999 RMK SF1SC2SC3AC2 SLP156=

TAF CYQQ 162339Z 1700/1724 13025G35KT P6SM -RA FEW008 SCT015 OVC040
TEMPO 1700/1713 5SM -RA BR SCT007 OVC012
FM171300 32005KT P6SM SCT012 BKN030 TEMPO 1713/1716 BKN012 BKN030
FM171600 32005KT P6SM SCT040
BECMG 1718/1720 32012KT
RMK NXT FCST BY 170600Z=
Your time UTC time
Weather data provided by Environment Canada and NAV CANADA